sensor_id;sensor_type;location;lat;lon;timestamp;P1;durP1;ratioP1;P2;durP2;ratioP2
25824;SDS011;13658;44.534;18.694;2023-08-24T00:02:08;30.38;;;27.05;;
25824;SDS011;13658;44.534;18.694;2023-08-24T00:04:36;29.83;;;26.73;;
25824;SDS011;13658;44.534;18.694;2023-08-24T00:07:02;30.05;;;26.95;;
25824;SDS011;13658;44.534;18.694;2023-08-24T00:09:28;30.20;;;27.00;;
25824;SDS011;13658;44.534;18.694;2023-08-24T00:11:54;30.33;;;27.13;;
25824;SDS011;13658;44.534;18.694;2023-08-24T00:14:20;31.40;;;28.10;;
25824;SDS011;13658;44.534;18.694;2023-08-24T00:16:46;30.15;;;26.92;;
25824;SDS011;13658;44.534;18.694;2023-08-24T00:19:12;35.97;;;31.88;;
25824;SDS011;13658;44.534;18.694;2023-08-24T00:21:38;35.50;;;31.83;;
25824;SDS011;13658;44.534;18.694;2023-08-24T00:24:04;35.63;;;31.80;;
25824;SDS011;13658;44.534;18.694;2023-08-24T00:26:30;34.38;;;30.58;;
25824;SDS011;13658;44.534;18.694;2023-08-24T00:28:56;35.45;;;31.67;;
25824;SDS011;13658;44.534;18.694;2023-08-24T00:31:22;34.00;;;30.60;;
25824;SDS011;13658;44.534;18.694;2023-08-24T00:33:48;38.13;;;33.47;;
25824;SDS011;13658;44.534;18.694;2023-08-24T00:36:15;37.83;;;33.78;;
25824;SDS011;13658;44.534;18.694;2023-08-24T00:38:43;36.13;;;32.17;;
25824;SDS011;13658;44.534;18.694;2023-08-24T00:41:09;37.40;;;33.35;;
25824;SDS011;13658;44.534;18.694;2023-08-24T00:43:35;34.83;;;31.00;;
25824;SDS011;13658;44.534;18.694;2023-08-24T00:46:01;35.53;;;31.73;;
25824;SDS011;13658;44.534;18.694;2023-08-24T00:48:29;35.65;;;31.92;;
25824;SDS011;13658;44.534;18.694;2023-08-24T00:50:57;34.05;;;30.38;;
25824;SDS011;13658;44.534;18.694;2023-08-24T00:53:25;36.53;;;32.55;;
25824;SDS011;13658;44.534;18.694;2023-08-24T00:55:53;36.15;;;32.35;;
25824;SDS011;13658;44.534;18.694;2023-08-24T00:58:19;36.88;;;32.50;;
25824;SDS011;13658;44.534;18.694;2023-08-24T01:00:47;35.85;;;32.08;;
25824;SDS011;13658;44.534;18.694;2023-08-24T01:03:14;34.80;;;31.17;;
25824;SDS011;13658;44.534;18.694;2023-08-24T01:05:43;35.17;;;31.35;;
25824;SDS011;13658;44.534;18.694;2023-08-24T01:08:10;34.28;;;30.67;;
25824;SDS011;13658;44.534;18.694;2023-08-24T01:11:23;34.53;;;30.70;;
25824;SDS011;13658;44.534;18.694;2023-08-24T01:13:35;35.53;;;31.63;;
25824;SDS011;13658;44.534;18.694;2023-08-24T01:16:08;33.25;;;29.48;;
25824;SDS011;13658;44.534;18.694;2023-08-24T01:18:40;32.45;;;29.05;;
25824;SDS011;13658;44.534;18.694;2023-08-24T01:21:08;32.85;;;29.35;;
25824;SDS011;13658;44.534;18.694;2023-08-24T01:26:25;34.47;;;30.75;;
25824;SDS011;13658;44.534;18.694;2023-08-24T01:28:52;36.47;;;31.88;;
25824;SDS011;13658;44.534;18.694;2023-08-24T01:31:19;36.08;;;32.28;;
25824;SDS011;13658;44.534;18.694;2023-08-24T01:33:47;35.92;;;32.05;;
25824;SDS011;13658;44.534;18.694;2023-08-24T01:36:14;36.15;;;32.15;;
25824;SDS011;13658;44.534;18.694;2023-08-24T01:38:42;34.30;;;30.65;;
25824;SDS011;13658;44.534;18.694;2023-08-24T01:41:19;33.67;;;30.25;;
25824;SDS011;13658;44.534;18.694;2023-08-24T01:43:53;35.25;;;30.90;;
25824;SDS011;13658;44.534;18.694;2023-08-24T01:46:22;32.95;;;29.25;;
25824;SDS011;13658;44.534;18.694;2023-08-24T01:48:49;35.63;;;30.50;;
25824;SDS011;13658;44.534;18.694;2023-08-24T01:51:18;34.13;;;30.67;;
25824;SDS011;13658;44.534;18.694;2023-08-24T01:53:44;34.10;;;30.45;;
25824;SDS011;13658;44.534;18.694;2023-08-24T01:56:12;34.75;;;31.15;;
25824;SDS011;13658;44.534;18.694;2023-08-24T01:58:41;34.15;;;30.50;;
25824;SDS011;13658;44.534;18.694;2023-08-24T02:01:10;32.90;;;29.48;;
25824;SDS011;13658;44.534;18.694;2023-08-24T02:03:38;34.08;;;30.52;;
25824;SDS011;13658;44.534;18.694;2023-08-24T02:06:07;36.35;;;32.25;;
25824;SDS011;13658;44.534;18.694;2023-08-24T02:08:33;37.13;;;33.15;;
25824;SDS011;13658;44.534;18.694;2023-08-24T02:11:02;38.47;;;34.33;;
25824;SDS011;13658;44.534;18.694;2023-08-24T02:13:28;39.08;;;34.78;;
25824;SDS011;13658;44.534;18.694;2023-08-24T02:16:07;39.72;;;35.47;;
25824;SDS011;13658;44.534;18.694;2023-08-24T02:18:38;39.78;;;35.10;;
25824;SDS011;13658;44.534;18.694;2023-08-24T02:21:07;40.25;;;33.88;;
25824;SDS011;13658;44.534;18.694;2023-08-24T02:23:35;38.75;;;34.65;;
25824;SDS011;13658;44.534;18.694;2023-08-24T02:26:01;38.55;;;34.47;;
25824;SDS011;13658;44.534;18.694;2023-08-24T02:28:28;40.95;;;36.65;;
25824;SDS011;13658;44.534;18.694;2023-08-24T02:30:54;39.75;;;35.55;;
25824;SDS011;13658;44.534;18.694;2023-08-24T02:33:20;39.67;;;35.13;;
25824;SDS011;13658;44.534;18.694;2023-08-24T02:35:49;40.72;;;35.00;;
25824;SDS011;13658;44.534;18.694;2023-08-24T02:38:15;36.42;;;32.55;;
25824;SDS011;13658;44.534;18.694;2023-08-24T02:40:40;38.63;;;33.00;;
25824;SDS011;13658;44.534;18.694;2023-08-24T02:43:06;37.60;;;33.47;;
25824;SDS011;13658;44.534;18.694;2023-08-24T02:45:33;36.67;;;32.80;;
25824;SDS011;13658;44.534;18.694;2023-08-24T02:47:58;44.00;;;35.90;;
25824;SDS011;13658;44.534;18.694;2023-08-24T02:50:24;42.67;;;38.03;;
25824;SDS011;13658;44.534;18.694;2023-08-24T02:52:50;41.75;;;37.20;;
25824;SDS011;13658;44.534;18.694;2023-08-24T02:55:17;43.17;;;38.70;;
25824;SDS011;13658;44.534;18.694;2023-08-24T02:57:43;40.08;;;35.90;;
25824;SDS011;13658;44.534;18.694;2023-08-24T03:00:09;38.97;;;34.85;;
25824;SDS011;13658;44.534;18.694;2023-08-24T03:02:35;38.92;;;34.88;;
25824;SDS011;13658;44.534;18.694;2023-08-24T03:05:01;39.08;;;34.95;;
25824;SDS011;13658;44.534;18.694;2023-08-24T03:07:28;39.42;;;35.20;;
25824;SDS011;13658;44.534;18.694;2023-08-24T03:09:53;38.90;;;34.80;;
25824;SDS011;13658;44.534;18.694;2023-08-24T03:12:19;41.50;;;35.17;;
25824;SDS011;13658;44.534;18.694;2023-08-24T03:14:45;39.47;;;35.22;;
25824;SDS011;13658;44.534;18.694;2023-08-24T03:17:12;38.22;;;34.33;;
25824;SDS011;13658;44.534;18.694;2023-08-24T03:19:38;39.13;;;34.65;;
25824;SDS011;13658;44.534;18.694;2023-08-24T03:22:04;38.60;;;34.42;;
25824;SDS011;13658;44.534;18.694;2023-08-24T03:24:29;38.58;;;34.38;;
25824;SDS011;13658;44.534;18.694;2023-08-24T03:26:55;39.17;;;34.78;;
25824;SDS011;13658;44.534;18.694;2023-08-24T03:29:21;39.00;;;33.95;;
25824;SDS011;13658;44.534;18.694;2023-08-24T03:31:47;38.17;;;34.17;;
25824;SDS011;13658;44.534;18.694;2023-08-24T03:34:13;40.97;;;34.13;;
25824;SDS011;13658;44.534;18.694;2023-08-24T03:36:39;39.08;;;34.97;;
25824;SDS011;13658;44.534;18.694;2023-08-24T03:39:05;39.20;;;34.92;;
25824;SDS011;13658;44.534;18.694;2023-08-24T03:41:31;40.38;;;36.17;;
25824;SDS011;13658;44.534;18.694;2023-08-24T03:43:57;46.70;;;37.83;;
25824;SDS011;13658;44.534;18.694;2023-08-24T03:46:23;39.95;;;34.70;;
25824;SDS011;13658;44.534;18.694;2023-08-24T03:48:49;38.97;;;34.75;;
25824;SDS011;13658;44.534;18.694;2023-08-24T03:51:14;38.63;;;34.50;;
25824;SDS011;13658;44.534;18.694;2023-08-24T03:53:40;38.85;;;33.80;;
25824;SDS011;13658;44.534;18.694;2023-08-24T03:56:06;40.80;;;35.40;;
25824;SDS011;13658;44.534;18.694;2023-08-24T03:58:38;40.53;;;34.85;;
25824;SDS011;13658;44.534;18.694;2023-08-24T04:01:12;39.90;;;35.22;;
25824;SDS011;13658;44.534;18.694;2023-08-24T04:03:37;40.33;;;35.92;;
25824;SDS011;13658;44.534;18.694;2023-08-24T04:06:04;41.70;;;35.83;;
25824;SDS011;13658;44.534;18.694;2023-08-24T04:08:30;39.95;;;34.78;;
25824;SDS011;13658;44.534;18.694;2023-08-24T04:10:56;38.38;;;33.53;;
25824;SDS011;13658;44.534;18.694;2023-08-24T04:13:23;39.55;;;35.17;;
25824;SDS011;13658;44.534;18.694;2023-08-24T04:15:49;37.85;;;33.83;;
25824;SDS011;13658;44.534;18.694;2023-08-24T04:18:16;40.42;;;36.17;;
25824;SDS011;13658;44.534;18.694;2023-08-24T04:20:42;41.05;;;35.92;;
25824;SDS011;13658;44.534;18.694;2023-08-24T04:23:07;40.78;;;36.33;;
25824;SDS011;13658;44.534;18.694;2023-08-24T04:25:38;42.35;;;35.95;;
25824;SDS011;13658;44.534;18.694;2023-08-24T04:28:05;41.08;;;36.03;;
25824;SDS011;13658;44.534;18.694;2023-08-24T04:30:31;40.53;;;36.17;;
25824;SDS011;13658;44.534;18.694;2023-08-24T04:32:57;41.53;;;35.25;;
25824;SDS011;13658;44.534;18.694;2023-08-24T04:35:25;40.70;;;36.28;;
25824;SDS011;13658;44.534;18.694;2023-08-24T04:37:52;37.38;;;33.33;;
25824;SDS011;13658;44.534;18.694;2023-08-24T04:40:18;36.83;;;32.92;;
25824;SDS011;13658;44.534;18.694;2023-08-24T04:42:43;37.20;;;33.08;;
25824;SDS011;13658;44.534;18.694;2023-08-24T04:45:09;37.83;;;33.78;;
25824;SDS011;13658;44.534;18.694;2023-08-24T04:47:36;39.90;;;33.95;;
25824;SDS011;13658;44.534;18.694;2023-08-24T04:50:02;37.70;;;33.60;;
25824;SDS011;13658;44.534;18.694;2023-08-24T04:52:29;36.78;;;32.70;;
25824;SDS011;13658;44.534;18.694;2023-08-24T04:54:54;40.00;;;33.67;;
25824;SDS011;13658;44.534;18.694;2023-08-24T04:57:20;38.10;;;34.10;;
25824;SDS011;13658;44.534;18.694;2023-08-24T04:59:46;37.38;;;33.45;;
25824;SDS011;13658;44.534;18.694;2023-08-24T05:02:13;36.55;;;32.35;;
25824;SDS011;13658;44.534;18.694;2023-08-24T05:05:05;40.33;;;32.67;;
25824;SDS011;13658;44.534;18.694;2023-08-24T05:07:40;36.20;;;32.25;;
25824;SDS011;13658;44.534;18.694;2023-08-24T05:10:16;37.85;;;32.50;;
25824;SDS011;13658;44.534;18.694;2023-08-24T05:12:52;51.95;;;40.15;;
25824;SDS011;13658;44.534;18.694;2023-08-24T05:15:18;45.30;;;36.67;;
25824;SDS011;13658;44.534;18.694;2023-08-24T05:17:44;38.17;;;33.65;;
25824;SDS011;13658;44.534;18.694;2023-08-24T05:20:10;36.70;;;31.55;;
25824;SDS011;13658;44.534;18.694;2023-08-24T05:22:37;38.08;;;32.42;;
25824;SDS011;13658;44.534;18.694;2023-08-24T05:25:03;71.18;;;51.92;;
25824;SDS011;13658;44.534;18.694;2023-08-24T05:27:30;39.35;;;32.45;;
25824;SDS011;13658;44.534;18.694;2023-08-24T05:29:56;34.30;;;30.58;;
25824;SDS011;13658;44.534;18.694;2023-08-24T05:32:23;34.75;;;31.05;;
25824;SDS011;13658;44.534;18.694;2023-08-24T05:34:49;35.30;;;31.60;;
25824;SDS011;13658;44.534;18.694;2023-08-24T05:37:15;49.05;;;40.65;;
25824;SDS011;13658;44.534;18.694;2023-08-24T05:39:41;36.67;;;32.75;;
25824;SDS011;13658;44.534;18.694;2023-08-24T05:42:08;35.17;;;31.67;;
25824;SDS011;13658;44.534;18.694;2023-08-24T05:44:34;32.72;;;29.33;;
25824;SDS011;13658;44.534;18.694;2023-08-24T05:47:00;36.22;;;30.02;;
25824;SDS011;13658;44.534;18.694;2023-08-24T05:49:26;31.92;;;28.60;;
25824;SDS011;13658;44.534;18.694;2023-08-24T05:51:53;30.63;;;27.42;;
25824;SDS011;13658;44.534;18.694;2023-08-24T05:54:19;31.00;;;27.70;;
25824;SDS011;13658;44.534;18.694;2023-08-24T05:56:45;34.17;;;30.45;;
25824;SDS011;13658;44.534;18.694;2023-08-24T05:59:12;34.28;;;30.00;;
25824;SDS011;13658;44.534;18.694;2023-08-24T06:01:38;31.10;;;27.80;;
25824;SDS011;13658;44.534;18.694;2023-08-24T06:04:05;32.72;;;29.25;;
25824;SDS011;13658;44.534;18.694;2023-08-24T06:06:31;34.13;;;30.50;;
25824;SDS011;13658;44.534;18.694;2023-08-24T06:09:01;34.63;;;30.90;;
25824;SDS011;13658;44.534;18.694;2023-08-24T06:11:30;35.53;;;31.65;;
25824;SDS011;13658;44.534;18.694;2023-08-24T06:13:57;34.67;;;29.83;;
25824;SDS011;13658;44.534;18.694;2023-08-24T06:16:23;32.00;;;27.90;;
25824;SDS011;13658;44.534;18.694;2023-08-24T06:18:49;33.30;;;29.70;;
25824;SDS011;13658;44.534;18.694;2023-08-24T06:21:15;34.58;;;30.92;;
25824;SDS011;13658;44.534;18.694;2023-08-24T06:23:42;55.03;;;42.20;;
25824;SDS011;13658;44.534;18.694;2023-08-24T06:26:09;34.95;;;30.63;;
25824;SDS011;13658;44.534;18.694;2023-08-24T06:28:35;47.28;;;41.17;;
25824;SDS011;13658;44.534;18.694;2023-08-24T06:31:01;58.53;;;45.33;;
25824;SDS011;13658;44.534;18.694;2023-08-24T06:33:27;42.50;;;35.13;;
25824;SDS011;13658;44.534;18.694;2023-08-24T06:35:56;35.72;;;30.45;;
25824;SDS011;13658;44.534;18.694;2023-08-24T06:38:22;33.63;;;30.02;;
25824;SDS011;13658;44.534;18.694;2023-08-24T06:40:48;32.95;;;29.65;;
25824;SDS011;13658;44.534;18.694;2023-08-24T06:43:14;35.08;;;31.27;;
25824;SDS011;13658;44.534;18.694;2023-08-24T06:45:40;34.85;;;30.25;;
25824;SDS011;13658;44.534;18.694;2023-08-24T06:48:07;38.28;;;34.15;;
25824;SDS011;13658;44.534;18.694;2023-08-24T06:50:33;40.65;;;36.25;;
25824;SDS011;13658;44.534;18.694;2023-08-24T06:53:11;38.33;;;34.33;;
25824;SDS011;13658;44.534;18.694;2023-08-24T06:55:37;43.78;;;39.13;;
25824;SDS011;13658;44.534;18.694;2023-08-24T06:58:03;47.55;;;40.30;;
25824;SDS011;13658;44.534;18.694;2023-08-24T07:00:32;43.72;;;39.10;;
25824;SDS011;13658;44.534;18.694;2023-08-24T07:03:01;42.22;;;38.13;;
25824;SDS011;13658;44.534;18.694;2023-08-24T07:05:27;42.80;;;38.28;;
25824;SDS011;13658;44.534;18.694;2023-08-24T07:07:54;45.03;;;40.42;;
25824;SDS011;13658;44.534;18.694;2023-08-24T07:10:20;43.22;;;38.55;;
25824;SDS011;13658;44.534;18.694;2023-08-24T07:12:46;42.72;;;38.15;;
25824;SDS011;13658;44.534;18.694;2023-08-24T07:15:12;40.47;;;36.05;;
25824;SDS011;13658;44.534;18.694;2023-08-24T07:17:39;40.70;;;36.50;;
25824;SDS011;13658;44.534;18.694;2023-08-24T07:20:05;38.28;;;34.42;;
25824;SDS011;13658;44.534;18.694;2023-08-24T07:22:33;35.80;;;32.22;;
25824;SDS011;13658;44.534;18.694;2023-08-24T07:24:59;37.22;;;33.50;;
25824;SDS011;13658;44.534;18.694;2023-08-24T07:27:26;37.92;;;33.65;;
25824;SDS011;13658;44.534;18.694;2023-08-24T07:29:53;37.33;;;33.80;;
25824;SDS011;13658;44.534;18.694;2023-08-24T07:32:19;36.55;;;32.90;;
25824;SDS011;13658;44.534;18.694;2023-08-24T07:34:45;36.65;;;32.92;;
25824;SDS011;13658;44.534;18.694;2023-08-24T07:37:11;37.10;;;33.30;;
25824;SDS011;13658;44.534;18.694;2023-08-24T07:39:37;37.35;;;33.70;;
25824;SDS011;13658;44.534;18.694;2023-08-24T07:42:03;35.75;;;32.28;;
25824;SDS011;13658;44.534;18.694;2023-08-24T07:44:29;36.00;;;32.28;;
25824;SDS011;13658;44.534;18.694;2023-08-24T07:46:56;35.58;;;32.03;;
25824;SDS011;13658;44.534;18.694;2023-08-24T07:49:21;36.10;;;32.70;;
25824;SDS011;13658;44.534;18.694;2023-08-24T07:51:47;33.85;;;30.63;;
25824;SDS011;13658;44.534;18.694;2023-08-24T07:54:13;39.15;;;35.35;;
25824;SDS011;13658;44.534;18.694;2023-08-24T07:56:39;34.60;;;31.55;;
25824;SDS011;13658;44.534;18.694;2023-08-24T07:59:05;31.90;;;28.80;;
25824;SDS011;13658;44.534;18.694;2023-08-24T08:01:32;32.92;;;29.83;;
25824;SDS011;13658;44.534;18.694;2023-08-24T08:03:58;36.97;;;33.38;;
25824;SDS011;13658;44.534;18.694;2023-08-24T08:06:25;33.10;;;29.85;;
25824;SDS011;13658;44.534;18.694;2023-08-24T08:08:52;31.20;;;28.25;;
25824;SDS011;13658;44.534;18.694;2023-08-24T08:11:18;37.40;;;33.97;;
25824;SDS011;13658;44.534;18.694;2023-08-24T08:13:44;35.70;;;32.35;;
25824;SDS011;13658;44.534;18.694;2023-08-24T08:16:10;37.17;;;33.38;;
25824;SDS011;13658;44.534;18.694;2023-08-24T08:18:36;32.20;;;29.00;;
25824;SDS011;13658;44.534;18.694;2023-08-24T08:21:10;37.92;;;34.05;;
25824;SDS011;13658;44.534;18.694;2023-08-24T08:23:39;30.27;;;27.38;;
25824;SDS011;13658;44.534;18.694;2023-08-24T08:26:07;32.03;;;28.70;;
25824;SDS011;13658;44.534;18.694;2023-08-24T08:28:35;35.15;;;31.63;;
25824;SDS011;13658;44.534;18.694;2023-08-24T08:31:01;31.40;;;28.50;;
25824;SDS011;13658;44.534;18.694;2023-08-24T08:33:28;33.65;;;30.45;;
25824;SDS011;13658;44.534;18.694;2023-08-24T08:35:55;31.30;;;28.10;;
25824;SDS011;13658;44.534;18.694;2023-08-24T08:38:21;29.45;;;26.80;;
25824;SDS011;13658;44.534;18.694;2023-08-24T08:40:53;28.55;;;26.20;;
25824;SDS011;13658;44.534;18.694;2023-08-24T08:43:21;30.10;;;27.50;;
25824;SDS011;13658;44.534;18.694;2023-08-24T08:45:49;29.98;;;27.48;;
25824;SDS011;13658;44.534;18.694;2023-08-24T08:48:15;29.50;;;26.42;;
25824;SDS011;13658;44.534;18.694;2023-08-24T08:50:42;29.05;;;26.27;;
25824;SDS011;13658;44.534;18.694;2023-08-24T08:53:08;29.58;;;26.83;;
25824;SDS011;13658;44.534;18.694;2023-08-24T08:55:34;26.95;;;24.58;;
25824;SDS011;13658;44.534;18.694;2023-08-24T08:58:00;29.05;;;25.20;;
25824;SDS011;13658;44.534;18.694;2023-08-24T09:00:30;26.35;;;23.63;;
25824;SDS011;13658;44.534;18.694;2023-08-24T09:02:58;29.20;;;26.38;;
25824;SDS011;13658;44.534;18.694;2023-08-24T09:05:25;27.25;;;24.60;;
25824;SDS011;13658;44.534;18.694;2023-08-24T09:07:55;26.17;;;23.40;;
25824;SDS011;13658;44.534;18.694;2023-08-24T09:10:23;25.20;;;22.48;;
25824;SDS011;13658;44.534;18.694;2023-08-24T09:12:49;26.83;;;22.58;;
25824;SDS011;13658;44.534;18.694;2023-08-24T09:15:23;23.60;;;21.15;;
25824;SDS011;13658;44.534;18.694;2023-08-24T09:17:50;24.13;;;21.63;;
25824;SDS011;13658;44.534;18.694;2023-08-24T09:20:17;21.45;;;19.30;;
25824;SDS011;13658;44.534;18.694;2023-08-24T09:22:43;20.58;;;18.65;;
25824;SDS011;13658;44.534;18.694;2023-08-24T09:25:10;21.77;;;19.77;;
25824;SDS011;13658;44.534;18.694;2023-08-24T09:27:36;23.35;;;21.05;;
25824;SDS011;13658;44.534;18.694;2023-08-24T09:30:03;25.88;;;23.48;;
25824;SDS011;13658;44.534;18.694;2023-08-24T09:32:31;21.70;;;19.65;;
25824;SDS011;13658;44.534;18.694;2023-08-24T09:35:04;23.45;;;21.05;;
25824;SDS011;13658;44.534;18.694;2023-08-24T09:37:34;22.90;;;20.80;;
25824;SDS011;13658;44.534;18.694;2023-08-24T09:40:01;22.35;;;20.08;;
25824;SDS011;13658;44.534;18.694;2023-08-24T09:45:29;23.13;;;20.63;;
25824;SDS011;13658;44.534;18.694;2023-08-24T09:47:57;21.05;;;19.25;;
25824;SDS011;13658;44.534;18.694;2023-08-24T09:50:25;21.77;;;19.70;;
25824;SDS011;13658;44.534;18.694;2023-08-24T09:52:53;21.45;;;19.65;;
25824;SDS011;13658;44.534;18.694;2023-08-24T09:55:23;20.75;;;18.88;;
25824;SDS011;13658;44.534;18.694;2023-08-24T09:57:52;21.90;;;19.92;;
25824;SDS011;13658;44.534;18.694;2023-08-24T10:00:20;20.85;;;18.83;;
25824;SDS011;13658;44.534;18.694;2023-08-24T10:02:50;20.08;;;18.27;;
25824;SDS011;13658;44.534;18.694;2023-08-24T10:05:19;26.35;;;21.73;;
25824;SDS011;13658;44.534;18.694;2023-08-24T10:07:53;21.92;;;20.00;;
25824;SDS011;13658;44.534;18.694;2023-08-24T10:10:20;22.17;;;20.08;;
25824;SDS011;13658;44.534;18.694;2023-08-24T10:12:50;21.33;;;19.33;;
25824;SDS011;13658;44.534;18.694;2023-08-24T10:15:18;20.52;;;18.63;;
25824;SDS011;13658;44.534;18.694;2023-08-24T10:17:44;21.13;;;19.20;;
25824;SDS011;13658;44.534;18.694;2023-08-24T10:20:11;20.02;;;18.02;;
25824;SDS011;13658;44.534;18.694;2023-08-24T10:22:37;25.90;;;23.35;;
25824;SDS011;13658;44.534;18.694;2023-08-24T10:25:07;20.98;;;18.75;;
25824;SDS011;13658;44.534;18.694;2023-08-24T10:27:34;22.20;;;20.05;;
25824;SDS011;13658;44.534;18.694;2023-08-24T10:30:01;21.10;;;18.88;;
25824;SDS011;13658;44.534;18.694;2023-08-24T10:32:27;21.45;;;18.90;;
25824;SDS011;13658;44.534;18.694;2023-08-24T10:34:54;20.77;;;18.70;;
25824;SDS011;13658;44.534;18.694;2023-08-24T10:37:26;20.85;;;18.95;;
25824;SDS011;13658;44.534;18.694;2023-08-24T10:39:53;19.98;;;18.08;;
25824;SDS011;13658;44.534;18.694;2023-08-24T10:42:19;20.25;;;18.30;;
25824;SDS011;13658;44.534;18.694;2023-08-24T10:44:46;21.23;;;19.13;;
25824;SDS011;13658;44.534;18.694;2023-08-24T10:47:20;22.73;;;20.27;;
25824;SDS011;13658;44.534;18.694;2023-08-24T10:52:32;23.33;;;20.88;;
25824;SDS011;13658;44.534;18.694;2023-08-24T10:55:20;22.63;;;20.15;;
25824;SDS011;13658;44.534;18.694;2023-08-24T10:57:58;23.90;;;21.40;;
25824;SDS011;13658;44.534;18.694;2023-08-24T11:00:28;25.00;;;20.67;;
25824;SDS011;13658;44.534;18.694;2023-08-24T11:02:55;22.08;;;20.08;;
25824;SDS011;13658;44.534;18.694;2023-08-24T11:05:23;25.73;;;20.13;;
25824;SDS011;13658;44.534;18.694;2023-08-24T11:08:02;22.48;;;20.20;;
25824;SDS011;13658;44.534;18.694;2023-08-24T11:13:14;23.75;;;21.27;;
25824;SDS011;13658;44.534;18.694;2023-08-24T11:15:45;23.38;;;20.25;;
25824;SDS011;13658;44.534;18.694;2023-08-24T11:20:55;21.42;;;19.25;;
25824;SDS011;13658;44.534;18.694;2023-08-24T11:23:29;23.17;;;18.30;;
25824;SDS011;13658;44.534;18.694;2023-08-24T11:25:56;21.42;;;19.23;;
25824;SDS011;13658;44.534;18.694;2023-08-24T11:28:27;21.17;;;19.10;;
25824;SDS011;13658;44.534;18.694;2023-08-24T11:30:55;22.02;;;19.73;;
25824;SDS011;13658;44.534;18.694;2023-08-24T11:33:29;25.08;;;22.42;;
25824;SDS011;13658;44.534;18.694;2023-08-24T11:35:56;21.15;;;19.05;;
25824;SDS011;13658;44.534;18.694;2023-08-24T11:38:22;22.75;;;19.00;;
25824;SDS011;13658;44.534;18.694;2023-08-24T11:40:48;20.50;;;18.50;;
25824;SDS011;13658;44.534;18.694;2023-08-24T11:43:24;20.60;;;18.45;;
25824;SDS011;13658;44.534;18.694;2023-08-24T11:45:54;23.13;;;17.02;;
25824;SDS011;13658;44.534;18.694;2023-08-24T11:48:24;14.25;;;12.57;;
25824;SDS011;13658;44.534;18.694;2023-08-24T11:50:55;13.77;;;11.05;;
25824;SDS011;13658;44.534;18.694;2023-08-24T11:53:21;13.70;;;12.30;;
25824;SDS011;13658;44.534;18.694;2023-08-24T11:55:52;17.42;;;15.75;;
25824;SDS011;13658;44.534;18.694;2023-08-24T11:58:18;16.10;;;13.65;;
25824;SDS011;13658;44.534;18.694;2023-08-24T12:00:44;20.48;;;12.23;;
25824;SDS011;13658;44.534;18.694;2023-08-24T12:03:11;11.68;;;10.45;;
25824;SDS011;13658;44.534;18.694;2023-08-24T12:05:38;11.68;;;9.95;;
25824;SDS011;13658;44.534;18.694;2023-08-24T12:08:04;10.02;;;8.93;;
25824;SDS011;13658;44.534;18.694;2023-08-24T12:10:31;8.88;;;8.00;;
25824;SDS011;13658;44.534;18.694;2023-08-24T12:13:00;9.50;;;8.60;;
25824;SDS011;13658;44.534;18.694;2023-08-24T12:15:30;12.38;;;8.90;;
25824;SDS011;13658;44.534;18.694;2023-08-24T12:18:06;8.73;;;7.90;;
25824;SDS011;13658;44.534;18.694;2023-08-24T12:20:36;10.48;;;8.52;;
25824;SDS011;13658;44.534;18.694;2023-08-24T12:23:02;11.93;;;10.75;;
25824;SDS011;13658;44.534;18.694;2023-08-24T12:25:28;13.38;;;9.30;;
25824;SDS011;13658;44.534;18.694;2023-08-24T12:28:10;9.75;;;8.50;;
25824;SDS011;13658;44.534;18.694;2023-08-24T12:30:47;10.30;;;8.50;;
25824;SDS011;13658;44.534;18.694;2023-08-24T12:33:21;11.35;;;8.40;;
25824;SDS011;13658;44.534;18.694;2023-08-24T12:35:51;10.00;;;8.77;;
25824;SDS011;13658;44.534;18.694;2023-08-24T12:38:17;9.25;;;8.35;;
25824;SDS011;13658;44.534;18.694;2023-08-24T12:40:44;10.57;;;7.70;;
25824;SDS011;13658;44.534;18.694;2023-08-24T12:43:10;8.68;;;7.82;;
25824;SDS011;13658;44.534;18.694;2023-08-24T12:45:36;10.70;;;9.50;;
25824;SDS011;13658;44.534;18.694;2023-08-24T12:48:05;11.82;;;8.57;;
25824;SDS011;13658;44.534;18.694;2023-08-24T12:50:32;8.93;;;7.97;;
25824;SDS011;13658;44.534;18.694;2023-08-24T12:52:59;12.43;;;7.95;;
25824;SDS011;13658;44.534;18.694;2023-08-24T12:55:26;11.75;;;8.45;;
25824;SDS011;13658;44.534;18.694;2023-08-24T12:57:52;9.38;;;8.48;;
25824;SDS011;13658;44.534;18.694;2023-08-24T13:00:18;11.20;;;8.55;;
25824;SDS011;13658;44.534;18.694;2023-08-24T13:02:45;11.80;;;8.27;;
25824;SDS011;13658;44.534;18.694;2023-08-24T13:05:11;13.20;;;8.02;;
25824;SDS011;13658;44.534;18.694;2023-08-24T13:07:38;8.95;;;7.50;;
25824;SDS011;13658;44.534;18.694;2023-08-24T13:10:04;11.23;;;9.05;;
25824;SDS011;13658;44.534;18.694;2023-08-24T13:12:31;15.80;;;12.05;;
25824;SDS011;13658;44.534;18.694;2023-08-24T13:14:58;13.05;;;9.65;;
25824;SDS011;13658;44.534;18.694;2023-08-24T13:17:24;9.45;;;8.48;;
25824;SDS011;13658;44.534;18.694;2023-08-24T13:19:50;11.40;;;8.10;;
25824;SDS011;13658;44.534;18.694;2023-08-24T13:22:16;8.93;;;8.02;;
25824;SDS011;13658;44.534;18.694;2023-08-24T13:24:42;10.85;;;7.70;;
25824;SDS011;13658;44.534;18.694;2023-08-24T13:27:11;11.02;;;9.13;;
25824;SDS011;13658;44.534;18.694;2023-08-24T13:29:37;12.10;;;8.18;;
25824;SDS011;13658;44.534;18.694;2023-08-24T13:32:03;10.65;;;7.95;;
25824;SDS011;13658;44.534;18.694;2023-08-24T13:34:32;8.70;;;7.78;;
25824;SDS011;13658;44.534;18.694;2023-08-24T13:36:58;7.80;;;7.03;;
25824;SDS011;13658;44.534;18.694;2023-08-24T13:39:28;7.95;;;7.18;;
25824;SDS011;13658;44.534;18.694;2023-08-24T13:41:55;11.10;;;7.72;;
25824;SDS011;13658;44.534;18.694;2023-08-24T13:44:21;10.02;;;8.75;;
25824;SDS011;13658;44.534;18.694;2023-08-24T13:46:48;9.52;;;8.15;;
25824;SDS011;13658;44.534;18.694;2023-08-24T13:49:14;14.23;;;7.72;;
25824;SDS011;13658;44.534;18.694;2023-08-24T13:51:40;8.40;;;7.60;;
25824;SDS011;13658;44.534;18.694;2023-08-24T13:54:15;9.73;;;7.40;;
25824;SDS011;13658;44.534;18.694;2023-08-24T13:56:43;11.82;;;8.48;;
25824;SDS011;13658;44.534;18.694;2023-08-24T13:59:10;11.20;;;8.80;;
25824;SDS011;13658;44.534;18.694;2023-08-24T14:01:37;16.15;;;9.43;;
25824;SDS011;13658;44.534;18.694;2023-08-24T14:04:03;11.40;;;8.20;;
25824;SDS011;13658;44.534;18.694;2023-08-24T14:06:30;14.10;;;9.68;;
25824;SDS011;13658;44.534;18.694;2023-08-24T14:08:57;10.07;;;8.30;;
25824;SDS011;13658;44.534;18.694;2023-08-24T14:11:23;13.18;;;8.55;;
25824;SDS011;13658;44.534;18.694;2023-08-24T14:13:49;10.45;;;8.75;;
25824;SDS011;13658;44.534;18.694;2023-08-24T14:16:17;8.63;;;7.72;;
25824;SDS011;13658;44.534;18.694;2023-08-24T14:18:44;12.15;;;8.63;;
25824;SDS011;13658;44.534;18.694;2023-08-24T14:21:11;9.70;;;8.25;;
25824;SDS011;13658;44.534;18.694;2023-08-24T14:23:37;12.23;;;8.65;;
25824;SDS011;13658;44.534;18.694;2023-08-24T14:26:03;12.45;;;8.77;;
25824;SDS011;13658;44.534;18.694;2023-08-24T14:28:46;9.63;;;8.70;;